createdAt,value
2018-02-08T00:00:24.916Z,60.08
2018-02-08T00:02:52.808Z,62.33
2018-02-08T00:05:20.825Z,58.08
2018-02-08T00:07:51.832Z,60.45
2018-02-08T00:10:25.451Z,65.40
2018-02-08T00:12:54.588Z,70.80
2018-02-08T00:15:22.551Z,61.75
2018-02-08T00:17:51.228Z,66.18
2018-02-08T00:20:19.932Z,71.57
2018-02-08T00:22:47.822Z,67.00
2018-02-08T00:25:15.747Z,58.55
2018-02-08T00:27:43.881Z,58.47
2018-02-08T00:30:11.768Z,59.50
2018-02-08T00:32:39.694Z,53.28
2018-02-08T00:35:07.559Z,58.53
2018-02-08T00:37:35.492Z,64.40
2018-02-08T00:40:03.417Z,64.40
2018-02-08T00:42:31.484Z,57.58
2018-02-08T00:44:59.351Z,57.90
2018-02-08T00:47:27.419Z,59.80
2018-02-08T00:49:55.331Z,62.30
2018-02-08T00:52:23.259Z,67.95
2018-02-08T00:54:51.142Z,52.08
2018-02-08T00:57:19.068Z,63.17
2018-02-08T00:59:46.957Z,55.10
2018-02-08T01:02:16.973Z,50.97
2018-02-08T01:04:44.849Z,57.05
2018-02-08T01:07:12.778Z,57.47
2018-02-08T01:09:40.711Z,58.87
2018-02-08T01:12:10.805Z,55.45
2018-02-08T01:14:38.797Z,58.70
2018-02-08T01:17:06.729Z,64.05
2018-02-08T01:19:34.608Z,54.28
2018-02-08T01:22:02.544Z,52.70
2018-02-08T01:24:30.423Z,61.67
2018-02-08T01:26:58.367Z,59.25
2018-02-08T01:29:26.263Z,50.85
2018-02-08T01:31:54.212Z,48.85
2018-02-08T01:34:22.088Z,53.80
2018-02-08T01:36:50.023Z,60.12
2018-02-08T01:39:17.922Z,51.33
2018-02-08T01:41:49.196Z,51.97
2018-02-08T01:44:17.855Z,52.67
2018-02-08T01:46:45.796Z,52.00
2018-02-08T01:49:13.684Z,52.95
2018-02-08T01:51:41.623Z,54.08
2018-02-08T01:54:09.505Z,51.75
2018-02-08T01:56:37.459Z,49.80
2018-02-08T01:59:05.352Z,49.53
2018-02-08T02:01:33.289Z,46.65
2018-02-08T02:04:01.177Z,56.28
2018-02-08T02:06:29.128Z,49.78
2018-02-08T02:08:57.036Z,51.72
2018-02-08T02:11:24.972Z,53.20
2018-02-08T02:13:52.842Z,45.60
2018-02-08T02:16:21.570Z,50.42
2018-02-08T02:18:49.486Z,46.63
2018-02-08T02:21:17.427Z,49.58
2018-02-08T02:23:46.076Z,44.45
2018-02-08T02:26:14.022Z,47.90
2018-02-08T02:28:41.917Z,47.38
2018-02-08T02:31:09.887Z,48.60
2018-02-08T02:33:41.480Z,49.45
2018-02-08T02:36:10.193Z,44.70
2018-02-08T02:38:38.101Z,46.53
2018-02-08T02:41:06.081Z,50.47
2018-02-08T02:43:33.993Z,49.05
2018-02-08T02:46:02.788Z,53.67
2018-02-08T02:48:30.682Z,55.80
2018-02-08T02:50:58.617Z,47.45
2018-02-08T02:53:26.504Z,43.33
2018-02-08T02:55:54.449Z,43.53
2018-02-08T02:58:22.354Z,49.08
2018-02-08T03:00:50.336Z,47.95
2018-02-08T03:03:18.325Z,44.63
2018-02-08T03:05:46.260Z,48.83
2018-02-08T03:08:14.156Z,49.05
2018-02-08T03:10:42.042Z,46.72
2018-02-08T03:13:09.982Z,39.97
2018-02-08T03:15:37.875Z,46.75
2018-02-08T03:18:05.812Z,46.05
2018-02-08T03:20:33.696Z,43.03
2018-02-08T03:23:01.619Z,51.13
2018-02-08T03:25:29.524Z,48.83
2018-02-08T03:27:57.463Z,47.03
2018-02-08T03:30:27.185Z,46.65
2018-02-08T03:32:55.156Z,45.80
2018-02-08T03:35:26.382Z,49.03
2018-02-08T03:37:57.958Z,45.75
2018-02-08T03:40:29.419Z,48.45
2018-02-08T03:43:00.255Z,43.30
2018-02-08T03:45:30.729Z,47.75
2018-02-08T03:47:59.150Z,36.45
2018-02-08T03:50:27.037Z,46.70
2018-02-08T03:52:54.971Z,43.17
2018-02-08T03:55:22.869Z,42.25
2018-02-08T03:57:50.812Z,42.33
2018-02-08T04:00:18.721Z,39.20
2018-02-08T04:02:46.864Z,41.78
2018-02-08T04:05:14.744Z,45.47
2018-02-08T04:07:42.677Z,40.12
2018-02-08T04:10:11.330Z,37.80
2018-02-08T04:12:39.270Z,43.05
2018-02-08T04:15:07.168Z,38.35
2018-02-08T04:17:35.103Z,39.50
2018-02-08T04:20:02.988Z,47.20
2018-02-08T04:22:30.921Z,40.10
2018-02-08T04:24:58.791Z,41.67
2018-02-08T04:27:26.724Z,41.35
2018-02-08T04:29:54.609Z,40.30
2018-02-08T04:32:23.420Z,41.85
2018-02-08T04:34:51.308Z,49.95
2018-02-08T04:37:19.252Z,46.42
2018-02-08T04:43:01.020Z,46.80
2018-02-08T04:45:40.800Z,44.05
2018-02-08T04:48:08.816Z,43.13
2018-02-08T04:50:36.751Z,43.72
2018-02-08T04:53:04.730Z,38.50
2018-02-08T04:55:32.660Z,39.28
2018-02-08T04:58:00.648Z,38.20
2018-02-08T05:00:29.362Z,49.45
2018-02-08T05:02:58.863Z,41.63
2018-02-08T05:05:26.784Z,42.13
2018-02-08T05:07:54.755Z,41.10
2018-02-08T05:10:22.667Z,45.58
2018-02-08T05:12:51.410Z,36.22
2018-02-08T05:15:22.689Z,39.08
2018-02-08T05:17:53.313Z,38.95
2018-02-08T05:20:21.242Z,34.13
2018-02-08T05:23:10.938Z,38.28
2018-02-08T05:25:38.888Z,39.50
2018-02-08T05:28:06.886Z,40.90
2018-02-08T05:30:34.811Z,33.65
2018-02-08T05:33:02.801Z,33.80
2018-02-08T05:35:30.717Z,37.35
2018-02-08T05:37:59.494Z,41.33
2018-02-08T05:40:27.423Z,38.20
2018-02-08T05:42:55.401Z,36.63
2018-02-08T05:45:23.319Z,36.42
2018-02-08T05:47:51.377Z,40.25
2018-02-08T05:50:19.293Z,45.40
2018-02-08T05:52:48.427Z,37.60
2018-02-08T05:55:16.348Z,40.33
2018-02-08T05:57:44.457Z,41.13
2018-02-08T06:00:17.121Z,46.45
2018-02-08T06:02:49.027Z,36.58
2018-02-08T06:05:20.685Z,41.75
2018-02-08T06:07:52.217Z,44.45
2018-02-08T06:10:20.384Z,43.42
2018-02-08T06:12:48.388Z,38.95
2018-02-08T06:15:16.339Z,42.95
2018-02-08T06:17:44.335Z,38.88
2018-02-08T06:20:12.275Z,43.50
2018-02-08T06:22:40.361Z,38.55
2018-02-08T06:25:08.283Z,42.40
2018-02-08T06:27:36.262Z,51.90
2018-02-08T06:30:04.212Z,48.65
2018-02-08T06:32:32.365Z,46.50
2018-02-08T06:35:00.292Z,47.20
2018-02-08T06:37:28.280Z,50.40
2018-02-08T06:39:56.216Z,48.15
2018-02-08T06:42:24.205Z,50.70
2018-02-08T06:44:52.134Z,53.83
2018-02-08T06:47:20.853Z,44.47
2018-02-08T06:49:48.782Z,44.08
2018-02-08T06:52:16.759Z,49.97
2018-02-08T06:54:44.684Z,50.45
2018-02-08T06:57:12.689Z,48.03
2018-02-08T06:59:40.681Z,46.15
2018-02-08T07:02:12.574Z,43.58
2018-02-08T07:04:40.503Z,43.20
2018-02-08T07:07:08.484Z,39.17
2018-02-08T07:09:36.420Z,52.22
2018-02-08T07:12:05.122Z,40.55
2018-02-08T07:14:33.102Z,49.92
2018-02-08T07:17:01.039Z,41.83
2018-02-08T07:19:29.574Z,44.78
2018-02-08T07:21:58.268Z,44.90
2018-02-08T07:24:26.245Z,51.63
2018-02-08T07:26:54.151Z,40.30
2018-02-08T07:29:22.900Z,43.85
2018-02-08T07:31:50.924Z,47.25
2018-02-08T07:34:19.684Z,47.20
2018-02-08T07:36:47.602Z,39.38
2018-02-08T07:39:15.559Z,60.42
2018-02-08T07:41:43.510Z,51.60
2018-02-08T07:44:12.281Z,43.22
2018-02-08T07:46:40.218Z,43.72
2018-02-08T07:49:08.178Z,49.08
2018-02-08T07:51:36.095Z,43.90
2018-02-08T07:54:04.051Z,41.15
2018-02-08T07:56:31.963Z,40.95
2018-02-08T07:59:00.694Z,38.58
2018-02-08T08:01:28.589Z,45.85
2018-02-08T08:03:56.558Z,66.53
2018-02-08T08:06:24.473Z,53.97
2018-02-08T08:08:52.492Z,53.10
2018-02-08T08:11:20.412Z,43.03
2018-02-08T08:13:48.360Z,52.22
2018-02-08T08:16:17.066Z,54.80
2018-02-08T08:18:45.040Z,53.38
2018-02-08T08:21:12.946Z,51.75
2018-02-08T08:23:44.501Z,46.63
2018-02-08T08:26:12.448Z,51.95
2018-02-08T08:28:41.173Z,51.60
2018-02-08T08:31:09.160Z,54.63
2018-02-08T08:33:37.123Z,54.28
2018-02-08T08:36:05.050Z,55.60
2018-02-08T08:38:33.020Z,49.33
2018-02-08T08:41:00.948Z,55.60
2018-02-08T08:43:29.681Z,61.10
2018-02-08T08:45:57.602Z,47.95
2018-02-08T08:48:25.553Z,52.22
2018-02-08T08:50:53.481Z,63.53
2018-02-08T08:53:22.601Z,59.13
2018-02-08T08:55:50.511Z,50.63
2018-02-08T08:58:18.463Z,54.50
2018-02-08T09:00:46.378Z,56.53
2018-02-08T09:03:14.329Z,57.10
2018-02-08T09:05:42.244Z,57.78
2018-02-08T09:08:10.194Z,57.67
2018-02-08T09:10:38.097Z,62.35
2018-02-08T09:13:06.065Z,56.55
2018-02-08T09:15:33.978Z,54.35
2018-02-08T09:18:01.928Z,57.90
2018-02-08T09:20:29.840Z,61.67
2018-02-08T09:22:57.923Z,53.15
2018-02-08T09:25:25.810Z,52.33
2018-02-08T09:27:53.770Z,60.70
2018-02-08T09:30:21.682Z,56.15
2018-02-08T09:32:49.638Z,54.35
2018-02-08T09:35:17.531Z,54.70
2018-02-08T09:37:45.479Z,55.67
2018-02-08T09:40:13.387Z,53.78
2018-02-08T09:42:41.271Z,57.80
2018-02-08T09:45:09.216Z,55.20
2018-02-08T09:47:37.116Z,61.08
2018-02-08T09:50:05.048Z,58.80
2018-02-08T09:52:36.636Z,53.58
2018-02-08T09:55:04.592Z,58.38
2018-02-08T09:57:32.464Z,58.03
2018-02-08T10:00:00.415Z,54.67
2018-02-08T10:02:28.342Z,55.90
2018-02-08T10:04:56.274Z,58.72
2018-02-08T10:07:24.202Z,60.80
2018-02-08T10:09:52.131Z,62.85
2018-02-08T10:12:20.066Z,65.05
2018-02-08T10:14:48.015Z,56.85
2018-02-08T10:17:16.681Z,58.80
2018-02-08T10:19:44.600Z,58.65
2018-02-08T10:22:12.472Z,53.83
2018-02-08T10:24:40.839Z,53.45
2018-02-08T10:27:08.831Z,59.30
2018-02-08T10:29:36.766Z,65.95
2018-02-08T10:32:04.668Z,62.38
2018-02-08T10:34:32.900Z,56.47
2018-02-08T10:37:00.928Z,62.78
2018-02-08T10:39:31.107Z,51.85
2018-02-08T10:41:59.915Z,60.95
2018-02-08T10:44:27.964Z,62.80
2018-02-08T10:46:56.648Z,60.80
2018-02-08T10:49:25.368Z,57.88
2018-02-08T10:51:53.426Z,60.78
2018-02-08T10:54:21.309Z,55.67
2018-02-08T10:56:49.282Z,57.72
2018-02-08T10:59:20.382Z,55.03
2018-02-08T11:01:48.461Z,56.72
2018-02-08T11:04:17.107Z,62.65
2018-02-08T11:06:45.022Z,54.15
2018-02-08T11:09:12.918Z,49.42
2018-02-08T11:11:41.071Z,56.95
2018-02-08T11:14:08.947Z,60.12
2018-02-08T11:16:36.884Z,56.22
2018-02-08T11:19:04.764Z,55.80
2018-02-08T11:21:33.460Z,58.25
2018-02-08T11:24:01.426Z,53.67
2018-02-08T11:26:30.116Z,58.92
2018-02-08T11:28:58.785Z,50.28
2018-02-08T11:31:26.778Z,56.37
2018-02-08T11:33:58.317Z,49.53
2018-02-08T11:36:27.033Z,52.72
2018-02-08T11:38:55.009Z,54.42
2018-02-08T11:41:23.686Z,56.97
2018-02-08T11:43:51.611Z,60.15
2018-02-08T11:46:19.491Z,56.05
2018-02-08T11:48:47.409Z,62.50
2018-02-08T11:51:15.416Z,56.88
2018-02-08T11:53:43.357Z,55.65
2018-02-08T11:56:11.246Z,64.95
2018-02-08T11:58:39.191Z,59.15
2018-02-08T12:01:07.074Z,56.58
2018-02-08T12:03:38.933Z,54.42
2018-02-08T12:06:06.800Z,54.10
2018-02-08T12:08:34.730Z,57.85
2018-02-08T12:11:02.628Z,56.00
2018-02-08T12:13:30.616Z,64.47
2018-02-08T12:15:58.618Z,61.53
2018-02-08T12:18:27.302Z,50.95
2018-02-08T12:20:55.943Z,60.80
2018-02-08T12:23:27.728Z,60.83
2018-02-08T12:25:56.021Z,58.55
2018-02-08T12:28:23.969Z,55.72
2018-02-08T12:30:51.929Z,53.53
2018-02-08T12:33:19.814Z,52.50
2018-02-08T12:35:47.776Z,57.40
2018-02-08T12:38:15.682Z,57.40
2018-02-08T12:40:45.047Z,57.17
2018-02-08T12:43:12.966Z,54.67
2018-02-08T12:45:40.914Z,53.17
2018-02-08T12:48:08.851Z,57.87
2018-02-08T12:50:37.182Z,56.60
2018-02-08T12:53:06.245Z,57.20
2018-02-08T12:55:34.185Z,55.43
2018-02-08T12:58:02.075Z,59.13
2018-02-08T13:00:30.012Z,57.27
2018-02-08T13:02:59.784Z,54.73
2018-02-08T13:05:30.525Z,63.90
2018-02-08T13:07:59.180Z,56.37
2018-02-08T13:10:27.131Z,59.07
2018-02-08T13:12:55.078Z,57.30
2018-02-08T13:15:23.041Z,64.03
2018-02-08T13:17:50.961Z,56.15
2018-02-08T13:20:19.496Z,51.30
2018-02-08T13:22:52.489Z,53.83
2018-02-08T13:25:21.323Z,55.87
2018-02-08T13:27:49.202Z,54.77
2018-02-08T13:30:17.143Z,55.57
2018-02-08T13:32:45.048Z,57.33
2018-02-08T13:35:14.346Z,54.77
2018-02-08T13:37:42.392Z,58.70
2018-02-08T13:40:14.948Z,57.70
2018-02-08T13:42:42.888Z,56.03
2018-02-08T13:45:10.907Z,54.90
2018-02-08T13:50:55.849Z,54.63
2018-02-08T13:53:29.245Z,65.60
2018-02-08T13:55:57.238Z,58.50
2018-02-08T13:58:30.611Z,61.13
2018-02-08T14:01:09.243Z,57.13
2018-02-08T14:03:37.191Z,57.00
2018-02-08T14:06:05.162Z,59.17
2018-02-08T14:08:33.067Z,59.55
2018-02-08T14:11:01.076Z,60.70
2018-02-08T14:13:28.969Z,57.33
2018-02-08T14:15:57.733Z,56.95
2018-02-08T14:18:25.603Z,58.83
2018-02-08T14:20:53.567Z,58.65
2018-02-08T14:23:21.485Z,64.35
2018-02-08T14:25:49.443Z,53.95
2018-02-08T14:28:18.129Z,50.63
2018-02-08T14:30:46.194Z,61.33
2018-02-08T14:33:16.015Z,64.25
2018-02-08T14:35:44.762Z,61.20
2018-02-08T14:38:12.672Z,59.30
2018-02-08T14:40:40.938Z,62.97
2018-02-08T14:43:08.848Z,55.95
2018-02-08T14:45:36.803Z,61.17
2018-02-08T14:48:04.729Z,58.78
2018-02-08T14:50:32.690Z,64.82
2018-02-08T14:53:00.625Z,56.30
2018-02-08T14:55:29.962Z,58.90
2018-02-08T14:57:57.874Z,63.25
2018-02-08T15:00:25.845Z,60.55
2018-02-08T15:02:53.837Z,60.75
2018-02-08T15:05:21.809Z,55.88
2018-02-08T15:07:49.716Z,58.30
2018-02-08T15:10:17.665Z,59.38
2018-02-08T15:12:45.622Z,62.67
2018-02-08T15:15:13.585Z,61.30
2018-02-08T15:17:41.502Z,55.55
2018-02-08T15:20:09.737Z,61.72
2018-02-08T15:22:37.646Z,61.15
2018-02-08T15:25:05.570Z,63.13
2018-02-08T15:27:33.491Z,58.95
2018-02-08T15:30:01.407Z,57.53
2018-02-08T15:32:29.421Z,60.28
2018-02-08T15:34:57.572Z,56.05
2018-02-08T15:37:25.568Z,62.03
2018-02-08T15:39:53.509Z,57.45
2018-02-08T15:42:21.408Z,61.30
2018-02-08T15:44:49.401Z,58.97
2018-02-08T15:47:17.300Z,59.42
2018-02-08T15:49:45.229Z,58.15
2018-02-08T15:52:13.580Z,55.60
2018-02-08T15:54:41.508Z,61.33
2018-02-08T15:57:09.407Z,55.53
2018-02-08T15:59:37.372Z,58.30
2018-02-08T16:02:05.412Z,60.00
2018-02-08T16:04:33.371Z,51.88
2018-02-08T16:07:03.216Z,54.75
2018-02-08T16:09:31.163Z,63.90
2018-02-08T16:11:59.063Z,64.97
2018-02-08T16:14:27.038Z,56.55
2018-02-08T16:16:58.196Z,66.50
2018-02-08T16:19:29.589Z,76.87
2018-02-08T16:22:01.039Z,64.32
2018-02-08T16:24:32.266Z,60.40
2018-02-08T16:27:00.417Z,63.35
2018-02-08T16:29:28.403Z,64.15
2018-02-08T16:31:56.332Z,53.65
2018-02-08T16:34:24.255Z,63.80
2018-02-08T16:36:52.223Z,58.45
2018-02-08T16:39:20.150Z,57.92
2018-02-08T16:41:53.925Z,65.70
2018-02-08T16:44:21.871Z,69.20
2018-02-08T16:46:49.842Z,60.22
2018-02-08T16:49:17.773Z,66.15
2018-02-08T16:51:45.736Z,70.25
2018-02-08T16:54:13.698Z,61.95
2018-02-08T16:56:41.687Z,60.53
2018-02-08T16:59:09.608Z,59.00
2018-02-08T17:01:37.584Z,59.05
2018-02-08T17:04:05.548Z,59.30
2018-02-08T17:06:33.564Z,63.58
2018-02-08T17:09:01.537Z,64.65
2018-02-08T17:11:29.477Z,71.80
2018-02-08T17:13:57.401Z,58.85
2018-02-08T17:16:25.343Z,63.42
2018-02-08T17:18:53.250Z,64.18
2018-02-08T17:21:21.220Z,58.67
2018-02-08T17:23:49.119Z,65.80
2018-02-08T17:26:17.087Z,63.40
2018-02-08T17:28:44.978Z,63.15
2018-02-08T17:31:12.956Z,69.93
2018-02-08T17:33:40.997Z,61.22
2018-02-08T17:36:08.952Z,57.00
2018-02-08T17:38:36.852Z,63.87
2018-02-08T17:41:04.806Z,62.67
2018-02-08T17:43:32.732Z,69.82
2018-02-08T17:46:00.754Z,63.53
2018-02-08T17:48:28.677Z,63.53
2018-02-08T17:50:56.640Z,63.03
2018-02-08T17:53:24.583Z,63.15
2018-02-08T17:55:52.578Z,63.70
2018-02-08T17:58:20.500Z,55.90
2018-02-08T18:00:48.539Z,64.55
2018-02-08T18:03:16.656Z,61.97
2018-02-08T18:05:44.873Z,61.85
2018-02-08T18:08:13.057Z,57.35
2018-02-08T18:10:41.021Z,62.13
2018-02-08T18:13:12.932Z,69.93
2018-02-08T18:15:43.830Z,69.35
2018-02-08T18:18:11.854Z,61.42
2018-02-08T18:20:43.585Z,61.60
2018-02-08T18:23:11.558Z,63.25
2018-02-08T18:25:39.545Z,68.43
2018-02-08T18:28:07.565Z,62.67
2018-02-08T18:30:35.494Z,63.10
2018-02-08T18:33:03.444Z,64.35
2018-02-08T18:35:33.475Z,54.20
2018-02-08T18:38:05.151Z,61.47
2018-02-08T18:40:33.445Z,60.10
2018-02-08T18:43:04.728Z,59.80
2018-02-08T18:45:37.577Z,64.70
2018-02-08T18:48:05.819Z,58.05
2018-02-08T18:50:33.776Z,59.17
2018-02-08T18:53:01.688Z,62.90
2018-02-08T18:55:30.812Z,64.97
2018-02-08T18:57:58.751Z,56.60
2018-02-08T19:00:26.907Z,60.08
2018-02-08T19:02:54.814Z,62.05
2018-02-08T19:05:22.786Z,58.78
2018-02-08T19:07:50.695Z,65.62
2018-02-08T19:10:21.819Z,60.25
2018-02-08T19:12:52.815Z,65.40
2018-02-08T19:15:20.935Z,62.13
2018-02-08T19:17:49.622Z,63.35
2018-02-08T19:20:18.342Z,58.87
2018-02-08T19:22:46.251Z,60.75
2018-02-08T19:25:14.213Z,54.97
2018-02-08T19:27:42.153Z,66.43
2018-02-08T19:30:10.061Z,58.10
2018-02-08T19:32:38.070Z,66.40
2018-02-08T19:35:05.961Z,66.97
2018-02-08T19:37:33.924Z,63.15
2018-02-08T19:40:01.826Z,60.42
2018-02-08T19:42:29.906Z,62.20
2018-02-08T19:44:57.841Z,65.80
2018-02-08T19:47:27.280Z,66.40
2018-02-08T19:49:55.254Z,59.08
2018-02-08T19:52:23.380Z,68.43
2018-02-08T19:54:51.309Z,69.90
2018-02-08T19:57:19.369Z,66.20
2018-02-08T19:59:47.333Z,66.35
2018-02-08T20:02:16.818Z,72.32
2018-02-08T20:04:44.804Z,76.15
2018-02-08T20:07:14.434Z,69.95
2018-02-08T20:09:43.330Z,68.70
2018-02-08T20:12:11.414Z,65.62
2018-02-08T20:14:40.140Z,62.55
2018-02-08T20:17:08.176Z,58.00
2018-02-08T20:19:36.998Z,64.57
2018-02-08T20:22:05.024Z,64.43
2018-02-08T20:24:32.944Z,62.50
2018-02-08T20:27:00.911Z,62.28
2018-02-08T20:29:29.614Z,64.43
2018-02-08T20:31:57.672Z,66.28
2018-02-08T20:34:25.628Z,64.57
2018-02-08T20:36:53.692Z,62.55
2018-02-08T20:39:21.604Z,64.80
2018-02-08T20:41:49.907Z,71.70
2018-02-08T20:44:17.838Z,62.83
2018-02-08T20:46:45.870Z,65.30
2018-02-08T20:49:14.703Z,67.32
2018-02-08T20:51:44.003Z,63.40
2018-02-08T20:54:11.932Z,61.20
2018-02-08T20:56:41.864Z,59.47
2018-02-08T20:59:09.759Z,60.53
2018-02-08T21:01:37.790Z,63.63
2018-02-08T21:04:05.768Z,66.00
2018-02-08T21:06:33.775Z,58.28
2018-02-08T21:09:01.685Z,70.30
2018-02-08T21:11:30.448Z,63.35
2018-02-08T21:13:58.374Z,65.40
2018-02-08T21:16:26.601Z,65.18
2018-02-08T21:21:35.824Z,58.60
2018-02-08T21:24:03.915Z,59.28
2018-02-08T21:26:31.897Z,59.55
2018-02-08T21:28:59.849Z,66.97
2018-02-08T21:31:27.852Z,70.05
2018-02-08T21:33:55.844Z,68.78
2018-02-08T21:36:24.607Z,54.55
2018-02-08T21:38:52.562Z,64.43
2018-02-08T21:41:20.588Z,65.15
2018-02-08T21:43:54.286Z,60.10
2018-02-08T21:46:25.543Z,58.00
2018-02-08T21:48:56.383Z,59.90
2018-02-08T21:51:28.295Z,58.87
2018-02-08T21:53:58.910Z,66.25
2018-02-08T21:56:31.777Z,58.80
2018-02-08T21:59:02.068Z,60.53
2018-02-08T22:01:30.688Z,65.25
2018-02-08T22:04:01.231Z,58.97
2018-02-08T22:06:31.665Z,62.45
2018-02-08T22:08:59.768Z,62.80
2018-02-08T22:11:27.759Z,76.70
2018-02-08T22:13:56.679Z,55.50
2018-02-08T22:16:24.589Z,59.10
2018-02-08T22:18:56.238Z,59.45
2018-02-08T22:21:24.136Z,75.93
2018-02-08T22:23:57.310Z,66.87
2018-02-08T22:26:28.271Z,62.00
2018-02-08T22:28:59.994Z,68.12
2018-02-08T22:31:33.267Z,63.05
2018-02-08T22:34:06.227Z,63.10
2018-02-08T22:36:37.789Z,70.32
2018-02-08T22:39:12.936Z,70.12
2018-02-08T22:41:44.049Z,61.67
2018-02-08T22:44:16.587Z,65.40
2018-02-08T22:46:46.450Z,68.32
2018-02-08T22:49:18.599Z,64.90
2018-02-08T22:51:50.158Z,72.37
2018-02-08T22:54:20.783Z,74.68
2018-02-08T22:56:51.331Z,66.80
2018-02-08T22:59:21.752Z,68.50
2018-02-08T23:01:52.081Z,76.65
2018-02-08T23:04:21.732Z,70.82
2018-02-08T23:06:52.753Z,68.90
2018-02-08T23:09:24.526Z,69.35
2018-02-08T23:11:54.379Z,70.78
2018-02-08T23:14:22.458Z,81.28
2018-02-08T23:16:50.348Z,71.93
2018-02-08T23:19:19.747Z,70.25
2018-02-08T23:21:48.481Z,68.60
2018-02-08T23:24:19.615Z,71.03
2018-02-08T23:26:51.257Z,73.62
2018-02-08T23:29:23.184Z,73.07
2018-02-08T23:31:54.039Z,62.50
2018-02-08T23:34:25.214Z,62.17
2018-02-08T23:36:56.377Z,71.12
2018-02-08T23:39:30.234Z,68.00
2018-02-08T23:42:01.153Z,63.15
2018-02-08T23:44:29.305Z,71.68
2018-02-08T23:46:57.240Z,69.70
2018-02-08T23:49:25.125Z,69.62
2018-02-08T23:51:55.167Z,69.20
2018-02-08T23:54:25.335Z,67.70
2018-02-08T23:56:55.207Z,64.68
2018-02-08T23:59:27.149Z,75.87
